Terminal Aerodrome Forecast
Issued by NWS

Home | Current Version | Previous Version | Text Only | Print | Product List | Glossary On
Versions: 1 2 3 4 5 6 7 8 9 10 11 12 13 14 15 16 17 18
931
FTUS46 KLOX 181124
TAFPMD
TAF
KPMD 181124Z 1812/1912 VRB03KT P6SM SKC
     FM181800 07008KT P6SM SKC
     FM190100 28008KT P6SM SKC
     FM190600 VRB03KT P6SM SKC=

USA.gov is the U.S. government's official web portal to all federal, state and local government web resources and services.